METAR Data
IDs: Format: Raw Decoded Include TAF

Data at: 1516 UTC 14 Apr 2021

METAR for:KHSE (Hatteras/Mitchell Fl, NC, US)
Text:KHSE 141451Z AUTO VRB03KT 10SM CLR 18/08 A3015 RMK AO2 SLP208 T01780083 58005
Temperature: 17.8°C ( 64°F)
Dewpoint: 8.3°C ( 47°F) [RH = 54%]
Pressure (altimeter):30.15 inches Hg (1021.1 mb) [Sea level pressure: 1020.8 mb]
Winds:variable direction winds at 3 MPH (3 knots; 1.5 m/s)
Visibility:10 or more sm (16+ km)
Ceiling:at least 12,000 feet AGL
Clouds:sky clear below 12,000 feet AGL
QC Flag:automated observation with no human augmentation
Text:KHSE 141351Z AUTO VRB04KT 10SM CLR 17/08 A3015 RMK AO2 SLP210 T01720083
Temperature: 17.2°C ( 63°F)
Dewpoint: 8.3°C ( 47°F) [RH = 56%]
Pressure (altimeter):30.15 inches Hg (1021.1 mb) [Sea level pressure: 1021.0 mb]
Winds:variable direction winds at 5 MPH (4 knots; 2.1 m/s)
Visibility:10 or more sm (16+ km)
Ceiling:at least 12,000 feet AGL
Clouds:sky clear below 12,000 feet AGL
QC Flag:automated observation with no human augmentation
Text:KHSE 141251Z AUTO 00000KT 10SM CLR 17/09 A3016 RMK AO2 SLP212 T01670089
Temperature: 16.7°C ( 62°F)
Dewpoint: 8.9°C ( 48°F) [RH = 60%]
Pressure (altimeter):30.16 inches Hg (1021.4 mb) [Sea level pressure: 1021.2 mb]
Winds:calm
Visibility:10 or more sm (16+ km)
Ceiling:at least 12,000 feet AGL
Clouds:sky clear below 12,000 feet AGL
QC Flag:automated observation with no human augmentation
Text:KHSE 141151Z AUTO 36003KT 10SM CLR 15/09 A3016 RMK AO2 SLP213 T01500094 10150 20089 53016
Temperature: 15.0°C ( 59°F)
Dewpoint: 9.4°C ( 49°F) [RH = 69%]
Pressure (altimeter):30.16 inches Hg (1021.4 mb) [Sea level pressure: 1021.3 mb]
Winds:from the N (360 degrees) at 3 MPH (3 knots; 1.5 m/s)
Visibility:10 or more sm (16+ km)
Ceiling:at least 12,000 feet AGL
Clouds:sky clear below 12,000 feet AGL
QC Flag:automated observation with no human augmentation
Text:KHSE 141051Z AUTO 00000KT 10SM CLR 11/08 A3014 RMK AO2 SLP205 T01060078
Temperature: 10.6°C ( 51°F)
Dewpoint: 7.8°C ( 46°F) [RH = 83%]
Pressure (altimeter):30.14 inches Hg (1020.7 mb) [Sea level pressure: 1020.5 mb]
Winds:calm
Visibility:10 or more sm (16+ km)
Ceiling:at least 12,000 feet AGL
Clouds:sky clear below 12,000 feet AGL
QC Flag:automated observation with no human augmentation
Text:KHSE 140951Z AUTO 00000KT 10SM CLR 12/08 A3013 RMK AO2 SLP202 T01220078
Temperature: 12.2°C ( 54°F)
Dewpoint: 7.8°C ( 46°F) [RH = 74%]
Pressure (altimeter):30.13 inches Hg (1020.4 mb) [Sea level pressure: 1020.2 mb]
Winds:calm
Visibility:10 or more sm (16+ km)
Ceiling:at least 12,000 feet AGL
Clouds:sky clear below 12,000 feet AGL
QC Flag:automated observation with no human augmentation
Text:KHSE 140851Z AUTO 35003KT 10SM CLR 09/08 A3011 RMK AO2 SLP197 T00940078 53006
Temperature: 9.4°C ( 49°F)
Dewpoint: 7.8°C ( 46°F) [RH = 90%]
Pressure (altimeter):30.11 inches Hg (1019.7 mb) [Sea level pressure: 1019.7 mb]
Winds:from the N (350 degrees) at 3 MPH (3 knots; 1.5 m/s)
Visibility:10 or more sm (16+ km)
Ceiling:at least 12,000 feet AGL
Clouds:sky clear below 12,000 feet AGL
QC Flag:automated observation with no human augmentation
Text:KHSE 140751Z AUTO 00000KT 10SM CLR 11/08 A3010 RMK AO2 SLP192 T01060078
Temperature: 10.6°C ( 51°F)
Dewpoint: 7.8°C ( 46°F) [RH = 83%]
Pressure (altimeter):30.10 inches Hg (1019.4 mb) [Sea level pressure: 1019.2 mb]
Winds:calm
Visibility:10 or more sm (16+ km)
Ceiling:at least 12,000 feet AGL
Clouds:sky clear below 12,000 feet AGL
QC Flag:automated observation with no human augmentation
Text:KHSE 140651Z AUTO 05003KT 10SM CLR 12/08 A3008 RMK AO2 SLP187 T01170083
Temperature: 11.7°C ( 53°F)
Dewpoint: 8.3°C ( 47°F) [RH = 80%]
Pressure (altimeter):30.08 inches Hg (1018.7 mb) [Sea level pressure: 1018.7 mb]
Winds:from the NE (50 degrees) at 3 MPH (3 knots; 1.5 m/s)
Visibility:10 or more sm (16+ km)
Ceiling:at least 12,000 feet AGL
Clouds:sky clear below 12,000 feet AGL
QC Flag:automated observation with no human augmentation
Text:KHSE 140551Z AUTO 05006KT 10SM CLR 12/08 A3010 RMK AO2 SLP191 T01220083 10122 20106 58016
Temperature: 12.2°C ( 54°F)
Dewpoint: 8.3°C ( 47°F) [RH = 77%]
Pressure (altimeter):30.10 inches Hg (1019.4 mb) [Sea level pressure: 1019.1 mb]
Winds:from the NE (50 degrees) at 7 MPH (6 knots; 3.1 m/s)
Visibility:10 or more sm (16+ km)
Ceiling:at least 12,000 feet AGL
Clouds:sky clear below 12,000 feet AGL
QC Flag:automated observation with no human augmentation
Text:KHSE 140451Z AUTO 05008KT 10SM CLR 12/08 A3011 RMK AO2 SLP195 T01220078 401560106
Temperature: 12.2°C ( 54°F)
Dewpoint: 7.8°C ( 46°F) [RH = 74%]
Pressure (altimeter):30.11 inches Hg (1019.7 mb) [Sea level pressure: 1019.5 mb]
Winds:from the NE (50 degrees) at 9 MPH (8 knots; 4.1 m/s)
Visibility:10 or more sm (16+ km)
Ceiling:at least 12,000 feet AGL
Clouds:sky clear below 12,000 feet AGL
QC Flag:automated observation with no human augmentation
Text:KHSE 140351Z AUTO 04006KT 10SM CLR 12/07 A3014 RMK AO2 SLP206 T01170072
Temperature: 11.7°C ( 53°F)
Dewpoint: 7.2°C ( 45°F) [RH = 74%]
Pressure (altimeter):30.14 inches Hg (1020.7 mb) [Sea level pressure: 1020.6 mb]
Winds:from the NE (40 degrees) at 7 MPH (6 knots; 3.1 m/s)
Visibility:10 or more sm (16+ km)
Ceiling:at least 12,000 feet AGL
Clouds:sky clear below 12,000 feet AGL
QC Flag:automated observation with no human augmentation
Text:KHSE 140251Z AUTO 06005KT 10SM CLR 11/07 A3014 RMK AO2 SLP207 T01110072 51021
Temperature: 11.1°C ( 52°F)
Dewpoint: 7.2°C ( 45°F) [RH = 77%]
Pressure (altimeter):30.14 inches Hg (1020.7 mb) [Sea level pressure: 1020.7 mb]
Winds:from the ENE (60 degrees) at 6 MPH (5 knots; 2.6 m/s)
Visibility:10 or more sm (16+ km)
Ceiling:at least 12,000 feet AGL
Clouds:sky clear below 12,000 feet AGL
QC Flag:automated observation with no human augmentation
Text:KHSE 140151Z AUTO 06005KT 10SM CLR 11/08 A3013 RMK AO2 SLP203 T01060078
Temperature: 10.6°C ( 51°F)
Dewpoint: 7.8°C ( 46°F) [RH = 83%]
Pressure (altimeter):30.13 inches Hg (1020.4 mb) [Sea level pressure: 1020.3 mb]
Winds:from the ENE (60 degrees) at 6 MPH (5 knots; 2.6 m/s)
Visibility:10 or more sm (16+ km)
Ceiling:at least 12,000 feet AGL
Clouds:sky clear below 12,000 feet AGL
QC Flag:automated observation with no human augmentation
Text:KHSE 140051Z AUTO 06005KT 10SM CLR 11/07 A3011 RMK AO2 SLP194 T01060072
Temperature: 10.6°C ( 51°F)
Dewpoint: 7.2°C ( 45°F) [RH = 79%]
Pressure (altimeter):30.11 inches Hg (1019.7 mb) [Sea level pressure: 1019.4 mb]
Winds:from the ENE (60 degrees) at 6 MPH (5 knots; 2.6 m/s)
Visibility:10 or more sm (16+ km)
Ceiling:at least 12,000 feet AGL
Clouds:sky clear below 12,000 feet AGL
QC Flag:automated observation with no human augmentation
Text:KHSE 132351Z AUTO VRB05KT 10SM CLR 11/07 A3008 RMK AO2 SLP186 T01110067 10156 20111 51009
Temperature: 11.1°C ( 52°F)
Dewpoint: 6.7°C ( 44°F) [RH = 74%]
Pressure (altimeter):30.08 inches Hg (1018.7 mb) [Sea level pressure: 1018.6 mb]
Winds:variable direction winds at 6 MPH (5 knots; 2.6 m/s)
Visibility:10 or more sm (16+ km)
Ceiling:at least 12,000 feet AGL
Clouds:sky clear below 12,000 feet AGL
QC Flag:automated observation with no human augmentation
Text:KHSE 132251Z AUTO 05008G15KT 010V080 10SM CLR 12/07 A3007 RMK AO2 SLP182 T01220072
Temperature: 12.2°C ( 54°F)
Dewpoint: 7.2°C ( 45°F) [RH = 71%]
Pressure (altimeter):30.07 inches Hg (1018.4 mb) [Sea level pressure: 1018.2 mb]
Winds:from the NE (50 degrees) at 9 MPH (8 knots; 4.1 m/s) gusting to 17 MPH (15 knots; 7.7 m/s)
Visibility:10 or more sm (16+ km)
Ceiling:at least 12,000 feet AGL
Clouds:sky clear below 12,000 feet AGL
QC Flag:automated observation with no human augmentation
Text:KHSE 132151Z AUTO 03011G19KT 10SM CLR 14/08 A3007 RMK AO2 SLP182 T01390083
Temperature: 13.9°C ( 57°F)
Dewpoint: 8.3°C ( 47°F) [RH = 69%]
Pressure (altimeter):30.07 inches Hg (1018.4 mb) [Sea level pressure: 1018.2 mb]
Winds:from the NNE (30 degrees) at 13 MPH (11 knots; 5.7 m/s) gusting to 22 MPH (19 knots; 9.8 m/s)
Visibility:10 or more sm (16+ km)
Ceiling:at least 12,000 feet AGL
Clouds:sky clear below 12,000 feet AGL
QC Flag:automated observation with no human augmentation
Text:KHSE 132051Z AUTO 04012G20KT 10SM CLR 14/09 A3006 RMK AO2 SLP177 T01440089 51002
Temperature: 14.4°C ( 58°F)
Dewpoint: 8.9°C ( 48°F) [RH = 70%]
Pressure (altimeter):30.06 inches Hg (1018.0 mb) [Sea level pressure: 1017.7 mb]
Winds:from the NE (40 degrees) at 14 MPH (12 knots; 6.2 m/s) gusting to 23 MPH (20 knots; 10.3 m/s)
Visibility:10 or more sm (16+ km)
Ceiling:at least 12,000 feet AGL
Clouds:sky clear below 12,000 feet AGL
QC Flag:automated observation with no human augmentation
Text:KHSE 131951Z AUTO 02009G19KT 340V080 10SM FEW018 15/09 A3005 RMK AO2 SLP176 T01500089
Temperature: 15.0°C ( 59°F)
Dewpoint: 8.9°C ( 48°F) [RH = 67%]
Pressure (altimeter):30.05 inches Hg (1017.7 mb) [Sea level pressure: 1017.6 mb]
Winds:from the NNE (20 degrees) at 10 MPH (9 knots; 4.6 m/s) gusting to 22 MPH (19 knots; 9.8 m/s)
Visibility:10 or more sm (16+ km)
Ceiling:at least 12,000 feet AGL
Clouds: few clouds at 1800 feet AGL
QC Flag:automated observation with no human augmentation
Text:KHSE 131942Z AUTO 02009G18KT 340V060 10SM SCT018 15/09 A3005 RMK AO2 T01500089
Temperature: 15.0°C ( 59°F)
Dewpoint: 8.9°C ( 48°F) [RH = 67%]
Pressure (altimeter):30.05 inches Hg (1017.7 mb)
Winds:from the NNE (20 degrees) at 10 MPH (9 knots; 4.6 m/s) gusting to 21 MPH (18 knots; 9.3 m/s)
Visibility:10 or more sm (16+ km)
Ceiling:at least 12,000 feet AGL
Clouds: scattered clouds at 1800 feet AGL
QC Flag:automated observation with no human augmentation
Text:KHSE 131909Z AUTO 01011G21KT 340V050 10SM BKN018 15/09 A3005 RMK AO2 T01500089
Temperature: 15.0°C ( 59°F)
Dewpoint: 8.9°C ( 48°F) [RH = 67%]
Pressure (altimeter):30.05 inches Hg (1017.7 mb)
Winds:from the N (10 degrees) at 13 MPH (11 knots; 5.7 m/s) gusting to 24 MPH (21 knots; 10.8 m/s)
Visibility:10 or more sm (16+ km)
Ceiling:1800 feet AGL
Clouds: broken clouds at 1800 feet AGL
QC Flag:automated observation with no human augmentation
Text:KHSE 131851Z AUTO 02009G16KT 340V050 10SM SCT018 16/09 A3005 RMK AO2 SLP177 T01560089
Temperature: 15.6°C ( 60°F)
Dewpoint: 8.9°C ( 48°F) [RH = 64%]
Pressure (altimeter):30.05 inches Hg (1017.7 mb) [Sea level pressure: 1017.7 mb]
Winds:from the NNE (20 degrees) at 10 MPH (9 knots; 4.6 m/s) gusting to 18 MPH (16 knots; 8.2 m/s)
Visibility:10 or more sm (16+ km)
Ceiling:at least 12,000 feet AGL
Clouds: scattered clouds at 1800 feet AGL
QC Flag:automated observation with no human augmentation
Text:KHSE 131837Z AUTO 02010G19KT 10SM SCT017 16/09 A3005 RMK AO2 T01560089
Temperature: 15.6°C ( 60°F)
Dewpoint: 8.9°C ( 48°F) [RH = 64%]
Pressure (altimeter):30.05 inches Hg (1017.7 mb)
Winds:from the NNE (20 degrees) at 12 MPH (10 knots; 5.1 m/s) gusting to 22 MPH (19 knots; 9.8 m/s)
Visibility:10 or more sm (16+ km)
Ceiling:at least 12,000 feet AGL
Clouds: scattered clouds at 1700 feet AGL
QC Flag:automated observation with no human augmentation
Text:KHSE 131802Z AUTO 02007G21KT 330V080 10SM BKN019 14/09 A3005 RMK AO2 T01440089
Temperature: 14.4°C ( 58°F)
Dewpoint: 8.9°C ( 48°F) [RH = 70%]
Pressure (altimeter):30.05 inches Hg (1017.7 mb)
Winds:from the NNE (20 degrees) at 8 MPH (7 knots; 3.6 m/s) gusting to 24 MPH (21 knots; 10.8 m/s)
Visibility:10 or more sm (16+ km)
Ceiling:1900 feet AGL
Clouds: broken clouds at 1900 feet AGL
QC Flag:automated observation with no human augmentation
Text:KHSE 131751Z AUTO 03012G21KT 350V050 10SM SCT019 BKN033 15/09 A3005 RMK AO2 SLP175 T01500089 10150 20128 51003
Temperature: 15.0°C ( 59°F)
Dewpoint: 8.9°C ( 48°F) [RH = 67%]
Pressure (altimeter):30.05 inches Hg (1017.7 mb) [Sea level pressure: 1017.5 mb]
Winds:from the NNE (30 degrees) at 14 MPH (12 knots; 6.2 m/s) gusting to 24 MPH (21 knots; 10.8 m/s)
Visibility:10 or more sm (16+ km)
Ceiling:3300 feet AGL
Clouds: scattered clouds at 1900 feet AGL, broken clouds at 3300 feet AGL
QC Flag:automated observation with no human augmentation
Text:KHSE 131729Z AUTO 03010G19KT 10SM FEW020 SCT025 OVC032 15/09 A3005 RMK AO2 T01500089
Temperature: 15.0°C ( 59°F)
Dewpoint: 8.9°C ( 48°F) [RH = 67%]
Pressure (altimeter):30.05 inches Hg (1017.7 mb)
Winds:from the NNE (30 degrees) at 12 MPH (10 knots; 5.1 m/s) gusting to 22 MPH (19 knots; 9.8 m/s)
Visibility:10 or more sm (16+ km)
Ceiling:3200 feet AGL
Clouds: few clouds at 2000 feet AGL, scattered clouds at 2500 feet AGL, overcast cloud deck at 3200 feet AGL
QC Flag:automated observation with no human augmentation
Text:KHSE 131651Z AUTO VRB06G19KT 10SM FEW022 OVC029 14/08 A3005 RMK AO2 SLP175 T01440083
Temperature: 14.4°C ( 58°F)
Dewpoint: 8.3°C ( 47°F) [RH = 67%]
Pressure (altimeter):30.05 inches Hg (1017.7 mb) [Sea level pressure: 1017.5 mb]
Winds:variable direction winds at 7 MPH (6 knots; 3.1 m/s) gusting to 22 MPH (19 knots; 9.8 m/s)
Visibility:10 or more sm (16+ km)
Ceiling:2900 feet AGL
Clouds: few clouds at 2200 feet AGL, overcast cloud deck at 2900 feet AGL
QC Flag:automated observation with no human augmentation
Text:KHSE 131551Z AUTO 02008G21KT 340V050 10SM OVC023 14/08 A3005 RMK AO2 SLP175 T01390083
Temperature: 13.9°C ( 57°F)
Dewpoint: 8.3°C ( 47°F) [RH = 69%]
Pressure (altimeter):30.05 inches Hg (1017.7 mb) [Sea level pressure: 1017.5 mb]
Winds:from the NNE (20 degrees) at 9 MPH (8 knots; 4.1 m/s) gusting to 24 MPH (21 knots; 10.8 m/s)
Visibility:10 or more sm (16+ km)
Ceiling:2300 feet AGL
Clouds: overcast cloud deck at 2300 feet AGL
QC Flag:automated observation with no human augmentation
Text:KHSE 131451Z AUTO 02008G17KT 340V090 10SM SCT023 OVC029 14/08 A3004 RMK AO2 SLP173 T01390083 53024
Temperature: 13.9°C ( 57°F)
Dewpoint: 8.3°C ( 47°F) [RH = 69%]
Pressure (altimeter):30.04 inches Hg (1017.4 mb) [Sea level pressure: 1017.3 mb]
Winds:from the NNE (20 degrees) at 9 MPH (8 knots; 4.1 m/s) gusting to 20 MPH (17 knots; 8.7 m/s)
Visibility:10 or more sm (16+ km)
Ceiling:2900 feet AGL
Clouds: scattered clouds at 2300 feet AGL, overcast cloud deck at 2900 feet AGL
QC Flag:automated observation with no human augmentation
Text:KHSE 131351Z AUTO 03007G18KT 320V070 10SM SCT016 BKN022 OVC029 13/09 A3002 RMK AO2 SLP165 T01330089
Temperature: 13.3°C ( 56°F)
Dewpoint: 8.9°C ( 48°F) [RH = 75%]
Pressure (altimeter):30.02 inches Hg (1016.7 mb) [Sea level pressure: 1016.5 mb]
Winds:from the NNE (30 degrees) at 8 MPH (7 knots; 3.6 m/s) gusting to 21 MPH (18 knots; 9.3 m/s)
Visibility:10 or more sm (16+ km)
Ceiling:2200 feet AGL
Clouds: scattered clouds at 1600 feet AGL, broken clouds at 2200 feet AGL, overcast cloud deck at 2900 feet AGL
QC Flag:automated observation with no human augmentation
Text:KHSE 131342Z AUTO 02011G20KT 10SM BKN016 BKN024 OVC029 13/09 A3002 RMK AO2 T01330089
Temperature: 13.3°C ( 56°F)
Dewpoint: 8.9°C ( 48°F) [RH = 75%]
Pressure (altimeter):30.02 inches Hg (1016.7 mb)
Winds:from the NNE (20 degrees) at 13 MPH (11 knots; 5.7 m/s) gusting to 23 MPH (20 knots; 10.3 m/s)
Visibility:10 or more sm (16+ km)
Ceiling:1600 feet AGL
Clouds: broken clouds at 1600 feet AGL, broken clouds at 2400 feet AGL, overcast cloud deck at 2900 feet AGL
QC Flag:automated observation with no human augmentation
Text:KHSE 131329Z AUTO 03010G19KT 10SM BKN014 OVC025 13/09 A3001 RMK AO2 T01330094
Temperature: 13.3°C ( 56°F)
Dewpoint: 9.4°C ( 49°F) [RH = 77%]
Pressure (altimeter):30.01 inches Hg (1016.3 mb)
Winds:from the NNE (30 degrees) at 12 MPH (10 knots; 5.1 m/s) gusting to 22 MPH (19 knots; 9.8 m/s)
Visibility:10 or more sm (16+ km)
Ceiling:1400 feet AGL
Clouds: broken clouds at 1400 feet AGL, overcast cloud deck at 2500 feet AGL
QC Flag:automated observation with no human augmentation
Text:KHSE 131307Z AUTO 02009G19KT 340V060 10SM SCT014 OVC023 13/10 A3000 RMK AO2 T01330100
Temperature: 13.3°C ( 56°F)
Dewpoint: 10.0°C ( 50°F) [RH = 80%]
Pressure (altimeter):30.00 inches Hg (1016.0 mb)
Winds:from the NNE (20 degrees) at 10 MPH (9 knots; 4.6 m/s) gusting to 22 MPH (19 knots; 9.8 m/s)
Visibility:10 or more sm (16+ km)
Ceiling:2300 feet AGL
Clouds: scattered clouds at 1400 feet AGL, overcast cloud deck at 2300 feet AGL
QC Flag:automated observation with no human augmentation
Text:KHSE 131251Z AUTO 02011G19KT 360V070 10SM BKN014 OVC020 13/09 A2999 RMK AO2 SLP156 T01280094
Temperature: 12.8°C ( 55°F)
Dewpoint: 9.4°C ( 49°F) [RH = 80%]
Pressure (altimeter):29.99 inches Hg (1015.7 mb) [Sea level pressure: 1015.6 mb]
Winds:from the NNE (20 degrees) at 13 MPH (11 knots; 5.7 m/s) gusting to 22 MPH (19 knots; 9.8 m/s)
Visibility:10 or more sm (16+ km)
Ceiling:1400 feet AGL
Clouds: broken clouds at 1400 feet AGL, overcast cloud deck at 2000 feet AGL
QC Flag:automated observation with no human augmentation
Text:KHSE 131151Z AUTO 01009G16KT 10SM OVC018 14/10 A2997 RMK AO2 SLP148 T01390100 10139 20128 53028
Temperature: 13.9°C ( 57°F)
Dewpoint: 10.0°C ( 50°F) [RH = 77%]
Pressure (altimeter):29.97 inches Hg (1015.0 mb) [Sea level pressure: 1014.8 mb]
Winds:from the N (10 degrees) at 10 MPH (9 knots; 4.6 m/s) gusting to 18 MPH (16 knots; 8.2 m/s)
Visibility:10 or more sm (16+ km)
Ceiling:1800 feet AGL
Clouds: overcast cloud deck at 1800 feet AGL
QC Flag:automated observation with no human augmentation
Text:KHSE 131117Z AUTO 35007KT 300V070 10SM OVC016 13/10 A2996 RMK AO2 T01330100
Temperature: 13.3°C ( 56°F)
Dewpoint: 10.0°C ( 50°F) [RH = 80%]
Pressure (altimeter):29.96 inches Hg (1014.6 mb)
Winds:from the N (350 degrees) at 8 MPH (7 knots; 3.6 m/s)
Visibility:10 or more sm (16+ km)
Ceiling:1600 feet AGL
Clouds: overcast cloud deck at 1600 feet AGL
QC Flag:automated observation with no human augmentation
Text:KHSE 131051Z AUTO 36008G17KT 10SM OVC014 13/10 A2994 RMK AO2 SLP139 T01330100
Temperature: 13.3°C ( 56°F)
Dewpoint: 10.0°C ( 50°F) [RH = 80%]
Pressure (altimeter):29.94 inches Hg (1014.0 mb) [Sea level pressure: 1013.9 mb]
Winds:from the N (360 degrees) at 9 MPH (8 knots; 4.1 m/s) gusting to 20 MPH (17 knots; 8.7 m/s)
Visibility:10 or more sm (16+ km)
Ceiling:1400 feet AGL
Clouds: overcast cloud deck at 1400 feet AGL
QC Flag:automated observation with no human augmentation
Text:KHSE 131000Z AUTO 36008G19KT 310V030 10SM OVC010 13/11 A2992 RMK AO2 T01280106
Temperature: 12.8°C ( 55°F)
Dewpoint: 10.6°C ( 51°F) [RH = 86%]
Pressure (altimeter):29.92 inches Hg (1013.3 mb)
Winds:from the N (360 degrees) at 9 MPH (8 knots; 4.1 m/s) gusting to 22 MPH (19 knots; 9.8 m/s)
Visibility:10 or more sm (16+ km)
Ceiling:1000 feet AGL
Clouds: overcast cloud deck at 1000 feet AGL
QC Flag:automated observation with no human augmentation
Text:KHSE 130951Z AUTO 01007G18KT 340V070 10SM OVC009 13/11 A2991 RMK AO2 CIG 008V014 SLP128 T01280106
Temperature: 12.8°C ( 55°F)
Dewpoint: 10.6°C ( 51°F) [RH = 86%]
Pressure (altimeter):29.91 inches Hg (1013.0 mb) [Sea level pressure: 1012.8 mb]
Winds:from the N (10 degrees) at 8 MPH (7 knots; 3.6 m/s) gusting to 21 MPH (18 knots; 9.3 m/s)
Visibility:10 or more sm (16+ km)
Ceiling:900 feet AGL
Clouds: overcast cloud deck at 900 feet AGL
QC Flag:automated observation with no human augmentation
Text:KHSE 130935Z AUTO 02008G15KT 350V080 10SM OVC009 13/11 A2991 RMK AO2 T01280106
Temperature: 12.8°C ( 55°F)
Dewpoint: 10.6°C ( 51°F) [RH = 86%]
Pressure (altimeter):29.91 inches Hg (1013.0 mb)
Winds:from the NNE (20 degrees) at 9 MPH (8 knots; 4.1 m/s) gusting to 17 MPH (15 knots; 7.7 m/s)
Visibility:10 or more sm (16+ km)
Ceiling:900 feet AGL
Clouds: overcast cloud deck at 900 feet AGL
QC Flag:automated observation with no human augmentation
Text:KHSE 130851Z AUTO 01009G16KT 310V030 10SM OVC010 13/11 A2989 RMK AO2 CIG 009V014 SLP120 T01330111 53008
Temperature: 13.3°C ( 56°F)
Dewpoint: 11.1°C ( 52°F) [RH = 87%]
Pressure (altimeter):29.89 inches Hg (1012.3 mb) [Sea level pressure: 1012.0 mb]
Winds:from the N (10 degrees) at 10 MPH (9 knots; 4.6 m/s) gusting to 18 MPH (16 knots; 8.2 m/s)
Visibility:10 or more sm (16+ km)
Ceiling:1000 feet AGL
Clouds: overcast cloud deck at 1000 feet AGL
QC Flag:automated observation with no human augmentation
Text:KHSE 130823Z AUTO 01008KT 340V040 10SM BKN011 OVC095 14/11 A2988 RMK AO2 T01390111
Temperature: 13.9°C ( 57°F)
Dewpoint: 11.1°C ( 52°F) [RH = 83%]
Pressure (altimeter):29.88 inches Hg (1011.9 mb)
Winds:from the N (10 degrees) at 9 MPH (8 knots; 4.1 m/s)
Visibility:10 or more sm (16+ km)
Ceiling:1100 feet AGL
Clouds: broken clouds at 1100 feet AGL, overcast cloud deck at 9500 feet AGL
QC Flag:automated observation with no human augmentation
Text:KHSE 130751Z AUTO 01008KT 10SM FEW013 OVC090 14/11 A2988 RMK AO2 SLP116 T01390111
Temperature: 13.9°C ( 57°F)
Dewpoint: 11.1°C ( 52°F) [RH = 83%]
Pressure (altimeter):29.88 inches Hg (1011.9 mb) [Sea level pressure: 1011.6 mb]
Winds:from the N (10 degrees) at 9 MPH (8 knots; 4.1 m/s)
Visibility:10 or more sm (16+ km)
Ceiling:9000 feet AGL
Clouds: few clouds at 1300 feet AGL, overcast cloud deck at 9000 feet AGL
QC Flag:automated observation with no human augmentation
Text:KHSE 130651Z AUTO VRB05KT 10SM BKN080 14/11 A2987 RMK AO2 SLP114 T01390111
Temperature: 13.9°C ( 57°F)
Dewpoint: 11.1°C ( 52°F) [RH = 83%]
Pressure (altimeter):29.87 inches Hg (1011.6 mb) [Sea level pressure: 1011.4 mb]
Winds:variable direction winds at 6 MPH (5 knots; 2.6 m/s)
Visibility:10 or more sm (16+ km)
Ceiling:8000 feet AGL
Clouds: broken clouds at 8000 feet AGL
QC Flag:automated observation with no human augmentation
Text:KHSE 130633Z AUTO 03010G14KT 10SM SCT007 13/11 A2986 RMK AO2 T01330111
Temperature: 13.3°C ( 56°F)
Dewpoint: 11.1°C ( 52°F) [RH = 87%]
Pressure (altimeter):29.86 inches Hg (1011.3 mb)
Winds:from the NNE (30 degrees) at 12 MPH (10 knots; 5.1 m/s) gusting to 16 MPH (14 knots; 7.2 m/s)
Visibility:10 or more sm (16+ km)
Ceiling:at least 12,000 feet AGL
Clouds: scattered clouds at 700 feet AGL
QC Flag:automated observation with no human augmentation
Text:KHSE 130551Z AUTO 03008G21KT 10SM OVC008 13/11 A2986 RMK AO2 CIG 007V011 SLP112 T01280106 10139 20122 51010
Temperature: 12.8°C ( 55°F)
Dewpoint: 10.6°C ( 51°F) [RH = 86%]
Pressure (altimeter):29.86 inches Hg (1011.3 mb) [Sea level pressure: 1011.2 mb]
Winds:from the NNE (30 degrees) at 9 MPH (8 knots; 4.1 m/s) gusting to 24 MPH (21 knots; 10.8 m/s)
Visibility:10 or more sm (16+ km)
Ceiling:800 feet AGL
Clouds: overcast cloud deck at 800 feet AGL
QC Flag:automated observation with no human augmentation
Text:KHSE 130548Z AUTO 02010G21KT 360V060 10SM OVC008 13/11 A2986 RMK AO2 CIG 007V012
Temperature: 13.0°C ( 55°F)
Dewpoint: 11.0°C ( 52°F) [RH = 88%]
Pressure (altimeter):29.86 inches Hg (1011.3 mb)
Winds:from the NNE (20 degrees) at 12 MPH (10 knots; 5.1 m/s) gusting to 24 MPH (21 knots; 10.8 m/s)
Visibility:10 or more sm (16+ km)
Ceiling:800 feet AGL
Clouds: overcast cloud deck at 800 feet AGL
QC Flag:automated observation with no human augmentation
Text:KHSE 130524Z AUTO 01009G23KT 10SM OVC010 13/11 A2987 RMK AO2 CIG 008V013 T01330111
Temperature: 13.3°C ( 56°F)
Dewpoint: 11.1°C ( 52°F) [RH = 87%]
Pressure (altimeter):29.87 inches Hg (1011.6 mb)
Winds:from the N (10 degrees) at 10 MPH (9 knots; 4.6 m/s) gusting to 26 MPH (23 knots; 11.8 m/s)
Visibility:10 or more sm (16+ km)
Ceiling:1000 feet AGL
Clouds: overcast cloud deck at 1000 feet AGL
QC Flag:automated observation with no human augmentation
Text:KHSE 130451Z AUTO 01009G23KT 320V030 10SM OVC007 14/12 A2987 RMK AO2 SLP114 T01390122 402280122
Temperature: 13.9°C ( 57°F)
Dewpoint: 12.2°C ( 54°F) [RH = 89%]
Pressure (altimeter):29.87 inches Hg (1011.6 mb) [Sea level pressure: 1011.4 mb]
Winds:from the N (10 degrees) at 10 MPH (9 knots; 4.6 m/s) gusting to 26 MPH (23 knots; 11.8 m/s)
Visibility:10 or more sm (16+ km)
Ceiling:700 feet AGL
Clouds: overcast cloud deck at 700 feet AGL
QC Flag:automated observation with no human augmentation
Text:KHSE 130351Z AUTO 04007KT 010V070 9SM BKN005 13/12 A2983 RMK AO2 SLP102 T01330122
Temperature: 13.3°C ( 56°F)
Dewpoint: 12.2°C ( 54°F) [RH = 93%]
Pressure (altimeter):29.83 inches Hg (1010.2 mb) [Sea level pressure: 1010.2 mb]
Winds:from the NE (40 degrees) at 8 MPH (7 knots; 3.6 m/s)
Visibility: 9 sm ( 14 km)
Ceiling:500 feet AGL
Clouds: broken clouds at 500 feet AGL
QC Flag:automated observation with no human augmentation
Text:KHSE 130326Z AUTO VRB06KT 9SM OVC004 13/12 A2983 RMK AO2 T01280117
Temperature: 12.8°C ( 55°F)
Dewpoint: 11.7°C ( 53°F) [RH = 93%]
Pressure (altimeter):29.83 inches Hg (1010.2 mb)
Winds:variable direction winds at 7 MPH (6 knots; 3.1 m/s)
Visibility: 9 sm ( 14 km)
Ceiling:400 feet AGL
Clouds: overcast cloud deck at 400 feet AGL
QC Flag:automated observation with no human augmentation